Time;durP1;ratioP1;P1;durP2;ratioP2;P2;SDS_P1;SDS_P2;PMS_P1;PMS_P2;Temp;Humidity;BMP_temperature;BMP_pressure;BME280_temperature;BME280_humidity;BME280_pressure;Samples;Min_cycle;Max_cycle;Signal;HPM_P1;HPM_P2
2022/07/18 00:02:08;;;;;;;34.03;14.85;;;;;;;16.99;77.42;99541.06;5000163;28;20053;-90
2022/07/18 00:04:34;;;;;;;29.50;15.13;;;;;;;16.87;76.74;99526.13;5034627;28;20107;-94
2022/07/18 00:07:00;;;;;;;;;;;;;;;17.09;76.86;99577.28;5016845;28;20140;-95
2022/07/18 00:09:27;;;;;;;29.80;15.15;;;;;;;16.98;76.82;99550.47;4996897;28;20036;-91
2022/07/18 00:11:53;;;;;;;40.97;16.05;;;;;;;17.14;77.06;99574.25;4982242;28;20034;-95
2022/07/18 00:14:20;;;;;;;35.70;14.52;;;;;;;17.13;76.04;99571.84;4997713;28;20096;-90
2022/07/18 00:16:48;;;;;;;28.30;13.65;;;;;;;16.99;75.88;99563.94;4994197;28;20568;-94
2022/07/18 00:19:15;;;;;;;27.92;13.15;;;;;;;16.93;75.27;99539.69;5016946;28;20071;-90
2022/07/18 00:21:41;;;;;;;30.55;12.75;;;;;;;17.13;75.50;99569.88;5000511;28;20038;-92
2022/07/18 00:24:07;;;;;;;30.17;12.95;;;;;;;17.11;75.26;99555.59;5000472;28;20052;-90
2022/07/18 00:26:33;;;;;;;26.40;12.33;;;;;;;17.09;75.18;99549.66;4984281;28;20037;-90
2022/07/18 00:29:00;;;;;;;27.03;10.27;;;;;;;17.03;74.24;99558.53;5012544;28;20053;-91
2022/07/18 00:31:26;;;;;;;20.55;10.93;;;;;;;16.94;74.81;99544.06;4995237;28;20376;-96
2022/07/18 00:33:53;;;;;;;29.95;11.48;;;;;;;16.94;75.13;99539.34;5011777;28;20049;-90
2022/07/18 00:36:19;;;;;;;20.25;10.13;;;;;;;17.17;73.58;99575.50;4995676;28;20128;-91
2022/07/18 00:38:46;;;;;;;22.27;10.52;;;;;;;16.85;73.97;99531.22;4995376;28;20113;-90
2022/07/18 00:41:16;;;;;;;21.57;9.93;;;;;;;17.17;73.20;99572.75;4976176;28;20046;-90
2022/07/18 00:43:43;;;;;;;21.05;10.63;;;;;;;16.84;74.67;99548.91;5013490;28;20053;-89
2022/07/18 00:46:11;;;;;;;37.55;10.55;;;;;;;16.84;73.58;99537.06;4997376;28;20065;-90
2022/07/18 00:48:38;;;;;;;30.42;10.23;;;;;;;16.94;73.86;99544.84;4999197;28;20043;-92
2022/07/18 00:51:05;;;;;;;32.50;11.80;;;;;;;17.05;74.81;99568.09;4999478;28;20145;-90
2022/07/18 00:53:31;;;;;;;23.98;10.48;;;;;;;16.87;73.80;99550.97;4996713;28;20046;-91
2022/07/18 00:56:02;;;;;;;28.58;10.55;;;;;;;16.98;73.08;99567.84;4984604;28;20066;-90
2022/07/18 00:58:28;;;;;;;22.35;10.13;;;;;;;16.80;72.99;99530.63;5000047;28;20422;-88
2022/07/18 01:03:41;;;;;;;22.07;9.07;;;;;;;16.86;73.35;99574.22;5016975;28;20503;-90
2022/07/18 01:06:07;;;;;;;26.20;10.45;;;;;;;16.65;73.83;99544.00;5016659;28;20297;-91
2022/07/18 01:08:35;;;;;;;24.70;9.50;;;;;;;16.77;73.54;99551.47;4983714;28;20045;-93
2022/07/18 01:11:01;;;;;;;21.00;9.38;;;;;;;16.91;73.64;99565.69;5016283;28;20038;-93
2022/07/18 01:13:27;;;;;;;17.97;9.63;;;;;;;16.87;72.83;99561.22;4995102;28;20054;-94
2022/07/18 01:15:54;;;;;;;21.48;9.85;;;;;;;16.89;73.60;99564.44;4997893;28;20614;-92
2022/07/18 01:18:20;;;;;;;23.80;9.67;;;;;;;16.64;72.31;99520.28;5015065;28;20057;-93
2022/07/18 01:20:46;;;;;;;18.67;9.20;;;;;;;16.99;72.49;99568.69;4998955;28;20084;-92
2022/07/18 01:23:12;;;;;;;20.33;9.37;;;;;;;16.76;73.11;99526.97;5000101;28;20587;-91
2022/07/18 01:25:39;;;;;;;19.53;9.57;;;;;;;16.85;73.60;99530.38;5001405;28;20292;-90
2022/07/18 01:28:05;;;;;;;22.88;9.90;;;;;;;16.87;73.50;99525.31;5014035;28;20092;-93
2022/07/18 01:30:31;;;;;;;25.27;10.73;;;;;;;17.00;74.36;99548.97;4998754;28;20042;-91
2022/07/18 01:33:00;;;;;;;21.88;10.10;;;;;;;17.30;73.08;99573.50;4982666;28;20041;-93
2022/07/18 01:35:28;;;;;;;23.00;9.30;;;;;;;17.08;73.08;99548.03;5000472;28;20068;-94
2022/07/18 01:37:56;;;;;;;29.15;10.35;;;;;;;17.30;72.80;99579.84;5016387;28;20042;-90
2022/07/18 01:40:23;;;;;;;23.08;9.18;;;;;;;17.11;71.27;99555.59;5000546;28;20037;-94
2022/07/18 01:42:49;;;;;;;;;;;;;;;17.24;72.84;99574.91;5016803;28;20061;-93
2022/07/18 01:45:18;;;;;;;24.48;11.05;;;;;;;17.13;73.57;99553.31;5000276;28;20056;-91
2022/07/18 01:47:45;;;;;;;31.00;11.15;;;;;;;17.00;73.29;99537.13;5015439;28;20037;-91
2022/07/18 01:50:13;;;;;;;21.40;10.10;;;;;;;16.86;72.53;99515.44;4998534;28;20048;-91
2022/07/18 01:52:39;;;;;;;21.10;10.25;;;;;;;17.28;71.55;99570.28;5014543;28;20069;-90
2022/07/18 01:55:08;;;;;;;23.23;10.85;;;;;;;17.07;73.43;99531.81;4983005;28;20052;-95
2022/07/18 01:57:35;;;;;;;20.70;10.60;;;;;;;16.99;73.60;99513.44;4999710;28;20144;-95
2022/07/18 02:00:02;;;;;;;26.00;10.02;;;;;;;17.18;74.32;99546.72;5014762;28;20073;-94
2022/07/18 02:02:33;;;;;;;25.75;9.90;;;;;;;17.10;70.07;99520.06;4999027;28;20065;-94
2022/07/18 02:04:59;;;;;;;17.55;9.85;;;;;;;17.30;72.49;99532.84;5015101;28;20040;-94
2022/07/18 02:07:27;;;;;;;21.57;9.70;;;;;;;17.28;71.97;99531.59;4981309;28;20454;-94
2022/07/18 02:09:53;;;;;;;24.70;10.40;;;;;;;17.37;70.68;99546.88;5015155;28;20521;-89
2022/07/18 02:12:20;;;;;;;32.42;9.90;;;;;;;17.19;71.17;99506.91;4983155;28;20045;-93
2022/07/18 02:14:46;;;;;;;;;;;;;;;17.53;70.73;99557.16;4984012;28;20053;-92
2022/07/18 02:17:12;;;;;;;25.10;10.32;;;;;;;17.42;70.68;99547.75;4998590;28;19921;-90
2022/07/18 02:19:38;;;;;;;21.00;10.38;;;;;;;17.13;70.74;99502.78;4982537;28;20037;-90
2022/07/18 02:22:05;;;;;;;24.75;10.07;;;;;;;17.31;71.15;99541.94;4998722;28;20522;-95
2022/07/18 02:24:31;;;;;;;28.92;10.35;;;;;;;17.37;72.36;99546.06;5014530;28;20062;-93
2022/07/18 02:26:58;;;;;;;30.20;10.57;;;;;;;17.38;73.17;99554.03;4984034;28;20045;-92
2022/07/18 02:29:24;;;;;;;24.38;10.05;;;;;;;17.48;72.09;99566.53;5001873;28;20549;-90
2022/07/18 02:31:50;;;;;;;22.00;10.10;;;;;;;17.31;72.27;99526.16;4981136;28;20046;-90
2022/07/18 02:34:17;;;;;;;28.47;10.67;;;;;;;17.42;73.21;99554.13;4996989;28;20038;-90
2022/07/18 02:36:43;;;;;;;27.85;11.40;;;;;;;17.26;72.95;99520.13;4964698;28;20037;-91
2022/07/18 02:39:09;;;;;;;23.17;10.32;;;;;;;17.31;72.08;99528.94;4997468;28;20030;-92
2022/07/18 02:41:37;;;;;;;23.95;10.80;;;;;;;17.37;73.12;99538.56;4997857;28;20519;-96
2022/07/18 02:44:04;;;;;;;22.25;11.85;;;;;;;17.47;73.11;99540.03;4987463;28;20064;-93
2022/07/18 02:46:30;;;;;;;27.35;10.95;;;;;;;17.45;72.40;99538.75;4983619;28;20042;-91
2022/07/18 02:48:57;;;;;;;21.77;10.75;;;;;;;17.45;72.24;99533.25;4985645;28;20046;-91
2022/07/18 02:51:23;;;;;;;21.15;10.00;;;;;;;17.59;73.27;99542.72;5017983;28;20052;-93
2022/07/18 02:53:49;;;;;;;26.23;10.70;;;;;;;17.49;73.58;99529.44;5001558;28;20045;-91
2022/07/18 02:56:15;;;;;;;22.17;10.77;;;;;;;17.63;73.72;99542.81;5001870;28;20293;-96
2022/07/18 02:58:42;;;;;;;26.67;10.93;;;;;;;17.86;74.05;99579.00;5004753;28;20041;-89
2022/07/18 03:01:08;;;;;;;;;;;;;;;17.91;73.75;99578.72;4990828;28;20056;-90
2022/07/18 03:03:35;;;;;;;26.00;11.07;;;;;;;17.84;73.28;99568.28;5025920;28;19951;-96
2022/07/18 03:06:01;;;;;;;26.38;10.77;;;;;;;17.74;73.51;99549.44;4992226;28;20125;-94
2022/07/18 03:08:27;;;;;;;29.40;11.73;;;;;;;17.79;74.11;99551.19;5033708;28;20041;-91
2022/07/18 03:10:55;;;;;;;21.23;11.05;;;;;;;17.53;73.59;99510.97;5015876;28;20073;-90
2022/07/18 03:13:21;;;;;;;42.47;13.73;;;;;;;17.88;73.39;99560.09;5005811;28;20128;-90
2022/07/18 03:15:49;;;;;;;57.58;16.05;;;;;;;17.85;72.84;99560.81;5004627;28;20457;-90
2022/07/18 03:18:17;;;;;;;53.80;15.85;;;;;;;17.75;73.74;99544.72;4985625;28;20163;-89
2022/07/18 03:20:43;;;;;;;52.95;15.63;;;;;;;17.70;73.74;99542.22;5002135;28;20044;-89
2022/07/18 03:23:10;;;;;;;43.05;14.77;;;;;;;17.75;74.06;99544.72;5019622;28;20118;-90
2022/07/18 03:25:36;;;;;;;48.65;15.52;;;;;;;17.82;73.56;99553.22;5018040;28;20041;-90
2022/07/18 03:28:03;;;;;;;46.03;15.25;;;;;;;17.77;73.78;99545.19;5016368;28;20137;-96
2022/07/18 03:30:29;;;;;;;36.53;14.52;;;;;;;17.87;73.57;99558.47;4979626;28;20038;-91
2022/07/18 03:32:56;;;;;;;34.10;14.15;;;;;;;17.97;74.02;99574.53;4995588;28;20050;-96
2022/07/18 03:35:23;;;;;;;42.85;13.93;;;;;;;17.95;73.14;99557.53;4961723;28;20205;-91
2022/07/18 03:37:49;;;;;;;33.83;13.93;;;;;;;17.82;73.29;99544.94;4960775;28;20030;-89
2022/07/18 03:40:15;;;;;;;36.20;14.27;;;;;;;17.88;73.79;99565.63;4960129;28;20042;-90
2022/07/18 03:42:42;;;;;;;31.50;12.95;;;;;;;17.99;73.61;99574.22;4970587;28;20038;-90
2022/07/18 03:45:09;;;;;;;35.15;13.15;;;;;;;17.81;73.41;99551.59;4967450;28;20046;-89
2022/07/18 03:47:37;;;;;;;27.48;12.65;;;;;;;17.95;72.89;99573.31;4975637;28;20046;-91
2022/07/18 03:50:03;;;;;;;24.90;11.98;;;;;;;17.82;73.66;99542.16;4993918;28;20042;-91
2022/07/18 03:52:30;;;;;;;27.73;13.90;;;;;;;17.89;74.38;99555.38;4923428;29;20043;-96
2022/07/18 03:54:57;;;;;;;29.95;12.95;;;;;;;18.03;74.88;99570.34;4940433;29;20055;-89
2022/07/18 03:57:23;;;;;;;33.13;13.13;;;;;;;17.83;74.60;99547.31;4939447;29;20110;-90
2022/07/18 03:59:49;;;;;;;32.15;13.27;;;;;;;17.96;74.38;99567.41;4955898;29;20611;-89
2022/07/18 04:02:16;;;;;;;28.88;12.68;;;;;;;17.88;73.94;99550.97;4941702;29;20082;-96
2022/07/18 04:04:42;;;;;;;31.00;12.95;;;;;;;17.88;73.73;99559.28;4941346;29;20495;-95
2022/07/18 04:07:08;;;;;;;36.83;13.85;;;;;;;17.71;73.84;99532.75;4926695;28;20043;-91
2022/07/18 04:09:35;;;;;;;32.47;12.88;;;;;;;17.91;74.22;99555.81;4959723;28;20050;-96
2022/07/18 04:12:02;;;;;;;32.53;12.23;;;;;;;17.73;72.99;99527.69;4977462;28;20105;-90
2022/07/18 04:14:28;;;;;;;;;;;;;;;17.97;72.79;99570.97;4978392;28;20052;-91
2022/07/18 04:16:54;;;;;;;23.55;11.40;;;;;;;17.95;71.25;99563.06;4977200;28;19921;-89
2022/07/18 04:19:23;;;;;;;28.20;14.35;;;;;;;17.93;70.39;99568.13;4964445;28;20042;-90
2022/07/18 04:21:49;;;;;;;33.40;16.92;;;;;;;17.99;71.80;99572.25;4979942;28;20042;-90
2022/07/18 04:24:15;;;;;;;37.57;15.23;;;;;;;17.84;72.51;99548.13;4963106;28;20512;-92
2022/07/18 04:26:42;;;;;;;39.00;12.55;;;;;;;17.77;70.01;99532.16;4964288;28;20660;-95
2022/07/18 04:29:11;;;;;;;27.45;13.52;;;;;;;17.87;72.75;99527.25;4985273;28;20050;-89
2022/07/18 04:31:37;;;;;;;28.00;13.95;;;;;;;17.93;73.92;99528.59;5018268;28;20144;-90
2022/07/18 04:34:04;;;;;;;31.35;14.18;;;;;;;18.02;73.85;99532.00;5002020;28;20129;-92
2022/07/18 04:36:30;;;;;;;33.70;14.70;;;;;;;18.28;74.05;99562.69;5001975;28;20130;-92
2022/07/18 04:38:56;;;;;;;25.67;12.73;;;;;;;18.15;70.42;99539.03;4982117;28;20574;-88
2022/07/18 04:41:24;;;;;;;19.20;9.40;;;;;;;18.25;66.80;99548.75;4998624;28;20083;-89
2022/07/18 04:43:51;;;;;;;21.58;10.02;;;;;;;18.20;69.55;99535.19;4980540;28;20068;-88
2022/07/18 04:46:18;;;;;;;21.52;9.85;;;;;;;18.00;67.69;99510.22;5003363;28;20096;-90
2022/07/18 04:48:44;;;;;;;26.85;10.35;;;;;;;18.06;66.97;99517.09;4998187;28;20133;-89
2022/07/18 04:51:10;;;;;;;25.95;10.68;;;;;;;18.16;70.15;99517.72;4982702;28;20038;-92
2022/07/18 04:53:36;;;;;;;22.67;10.80;;;;;;;18.27;71.71;99543.66;4999681;28;20056;-90
2022/07/18 04:56:03;;;;;;;29.10;11.17;;;;;;;18.01;69.95;99520.13;5014713;28;20061;-94
2022/07/18 04:58:29;;;;;;;23.30;10.80;;;;;;;18.04;69.58;99513.84;4995912;28;20384;-94
2022/07/18 05:00:55;;;;;;;25.08;9.95;;;;;;;18.19;68.12;99528.06;4999542;28;20038;-93
2022/07/18 05:03:22;;;;;;;27.30;9.98;;;;;;;18.09;65.95;99526.63;5014875;28;20050;-89
2022/07/18 05:05:48;;;;;;;24.40;11.38;;;;;;;18.06;66.48;99510.75;5003016;28;20030;-88
2022/07/18 05:08:15;;;;;;;32.58;10.48;;;;;;;18.23;67.68;99531.72;4998898;28;20145;-94
2022/07/18 05:10:41;;;;;;;28.13;10.33;;;;;;;18.21;68.25;99534.00;5003436;28;20613;-92
2022/07/18 05:13:10;;;;;;;22.83;10.15;;;;;;;18.38;68.41;99566.88;5005089;28;20296;-89
2022/07/18 05:15:37;;;;;;;31.27;11.18;;;;;;;18.20;70.59;99537.97;4998252;28;20042;-90
2022/07/18 05:18:03;;;;;;;24.05;10.45;;;;;;;18.26;69.68;99555.91;5004921;28;20049;-90
2022/07/18 05:20:29;;;;;;;25.33;12.10;;;;;;;18.21;70.15;99534.84;5001924;28;20068;-90
2022/07/18 05:22:56;;;;;;;31.30;12.63;;;;;;;18.52;70.39;99575.50;5018585;28;20050;-91
2022/07/18 05:25:22;;;;;;;;;;;;;;;18.59;71.88;99576.84;5018600;28;20037;-89
2022/07/18 05:27:50;;;;;;;32.40;15.68;;;;;;;18.43;71.42;99549.19;4997245;28;19929;-96
2022/07/18 05:30:16;;;;;;;28.20;13.80;;;;;;;18.39;69.59;99537.22;4978207;28;20057;-90
2022/07/18 05:32:44;;;;;;;29.35;15.50;;;;;;;18.56;70.42;99545.13;5004546;28;20045;-90
2022/07/18 05:35:11;;;;;;;29.83;15.85;;;;;;;18.60;72.41;99545.22;5021105;28;20044;-94
2022/07/18 05:37:39;;;;;;;33.33;14.15;;;;;;;18.80;67.69;99560.72;5022644;28;20081;-91
2022/07/18 05:40:08;;;;;;;29.38;14.35;;;;;;;18.82;68.93;99532.69;4990224;28;20084;-90
2022/07/18 05:42:34;;;;;;;46.45;14.35;;;;;;;18.88;67.93;99539.53;5000859;28;20468;-90
2022/07/18 05:45:00;;;;;;;50.55;14.90;;;;;;;18.91;65.61;99520.22;5020412;28;20042;-91
2022/07/18 05:49:55;;;;;;;39.63;14.90;;;;;;;19.13;64.99;99515.09;5016371;28;20046;-90
2022/07/18 05:52:21;;;;;;;66.47;17.70;;;;;;;19.29;64.87;99526.91;5000166;28;20614;-90
2022/07/18 05:54:48;;;;;;;89.33;18.83;;;;;;;19.41;65.19;99518.44;4983317;28;20042;-91
2022/07/18 05:57:14;;;;;;;105.10;20.02;;;;;;;19.70;64.67;99536.44;4978978;28;20289;-91
2022/07/18 05:59:40;;;;;;;103.20;20.83;;;;;;;19.60;64.39;99516.78;4987386;28;20038;-95
2022/07/18 06:02:07;;;;;;;98.25;19.15;;;;;;;19.27;63.62;99492.41;5001241;28;20054;-92
2022/07/18 06:04:33;;;;;;;57.42;15.25;;;;;;;19.46;62.92;99520.09;4996948;28;20097;-91
2022/07/18 06:07:00;;;;;;;74.72;16.90;;;;;;;19.59;62.57;99512.41;4979025;28;20499;-95
2022/07/18 06:09:30;;;;;;;62.08;17.17;;;;;;;19.50;61.40;99509.88;4983344;28;20050;-92
2022/07/18 06:12:00;;;;;;;47.10;15.90;;;;;;;19.64;60.92;99510.19;4980305;28;20085;-90
2022/07/18 06:14:27;;;;;;;46.22;13.85;;;;;;;19.59;60.60;99521.53;4981269;28;20054;-91
2022/07/18 06:16:54;;;;;;;93.60;15.93;;;;;;;19.31;60.56;99473.88;5015039;28;20048;-95
2022/07/18 06:19:20;;;;;;;39.78;11.82;;;;;;;19.16;59.35;99481.13;5014966;28;20517;-91
2022/07/18 06:21:47;;;;;;;46.03;12.60;;;;;;;19.37;61.05;99484.31;5013339;28;20060;-90
2022/07/18 06:24:14;;;;;;;71.10;13.35;;;;;;;19.53;60.60;99514.69;5012413;28;20038;-88
2022/07/18 06:26:40;;;;;;;;;;;;;;;19.56;60.03;99529.78;5012845;28;20092;-86
2022/07/18 06:29:06;;;;;;;52.95;12.32;;;;;;;19.64;60.54;99514.94;5011629;28;19929;-86
2022/07/18 06:31:32;;;;;;;76.30;14.32;;;;;;;19.54;60.03;99491.34;5012411;28;20038;-86
2022/07/18 06:33:58;;;;;;;55.15;14.15;;;;;;;19.74;60.34;99508.75;5014595;28;20046;-86
2022/07/18 06:36:24;;;;;;;48.75;14.90;;;;;;;19.84;59.18;99521.22;4996265;28;20033;-85
2022/07/18 06:38:51;;;;;;;68.95;12.93;;;;;;;19.84;60.18;99510.91;5012771;28;20046;-86
2022/07/18 06:41:18;;;;;;;63.65;12.75;;;;;;;19.99;59.04;99505.59;5013353;28;20053;-86
2022/07/18 06:43:45;;;;;;;92.07;15.85;;;;;;;20.04;59.64;99496.97;5015975;28;20561;-86
2022/07/18 06:46:12;;;;;;;55.45;13.18;;;;;;;20.10;59.15;99498.25;5018991;28;20040;-87
2022/07/18 06:48:38;;;;;;;51.95;12.52;;;;;;;20.07;58.20;99510.09;4995985;28;20136;-88
2022/07/18 06:51:05;;;;;;;23.75;10.13;;;;;;;19.79;57.53;99500.13;5016783;28;20022;-87
2022/07/18 06:53:32;;;;;;;43.65;10.88;;;;;;;19.99;58.74;99511.94;5013243;28;20042;-87
2022/07/18 06:55:59;;;;;;;54.45;11.90;;;;;;;20.15;58.69;99518.16;5014288;28;20041;-86
2022/07/18 06:58:25;;;;;;;29.83;10.63;;;;;;;20.10;57.50;99503.81;4996206;28;20052;-86
2022/07/18 07:00:52;;;;;;;44.30;10.00;;;;;;;20.23;56.51;99513.53;5022888;28;20038;-86
2022/07/18 07:03:18;;;;;;;28.58;9.32;;;;;;;20.24;54.24;99498.47;5014172;28;20277;-86
2022/07/18 07:05:45;;;;;;;35.35;9.18;;;;;;;20.18;54.63;99508.28;5012921;28;20510;-86
2022/07/18 07:08:12;;;;;;;52.35;9.32;;;;;;;20.06;54.60;99491.81;5011680;28;20518;-84
2022/07/18 07:10:39;;;;;;;37.70;9.50;;;;;;;20.27;53.87;99517.16;4980701;28;20049;-86
2022/07/18 07:13:05;;;;;;;58.42;10.82;;;;;;;20.37;54.13;99513.75;5014073;28;20422;-93
2022/07/18 07:15:32;;;;;;;45.67;11.20;;;;;;;20.40;55.39;99515.75;5017084;28;20048;-92
2022/07/18 07:17:58;;;;;;;57.17;13.43;;;;;;;20.49;55.38;99523.81;5016947;28;20045;-92
2022/07/18 07:20:24;;;;;;;70.60;14.82;;;;;;;20.38;55.76;99509.78;5014855;28;20045;-94
2022/07/18 07:22:54;;;;;;;59.72;12.68;;;;;;;20.62;56.59;99514.09;5015472;28;20506;-86
2022/07/18 07:25:23;;;;;;;68.75;13.48;;;;;;;20.62;56.35;99511.34;5016488;28;20034;-85
2022/07/18 07:27:49;;;;;;;60.40;14.95;;;;;;;20.62;56.66;99503.00;4978230;28;20132;-86
2022/07/18 07:30:16;;;;;;;41.70;12.43;;;;;;;20.67;55.73;99526.88;5015304;28;20041;-88
2022/07/18 07:32:44;;;;;;;39.55;12.55;;;;;;;20.60;54.66;99516.47;5003541;28;20507;-85
2022/07/18 07:35:13;;;;;;;40.17;13.38;;;;;;;20.68;55.15;99522.94;5008327;28;20042;-85
2022/07/18 07:37:41;;;;;;;58.38;14.95;;;;;;;20.69;55.69;99521.75;5013833;28;20041;-93
2022/07/18 07:40:12;;;;;;;97.80;14.75;;;;;;;20.71;55.30;99494.41;4991436;28;20050;-85
2022/07/18 07:42:38;;;;;;;114.25;16.90;;;;;;;20.82;55.08;99500.09;4999172;28;20034;-93
2022/07/18 07:45:05;;;;;;;36.72;12.93;;;;;;;20.82;54.36;99494.53;5016784;28;20487;-83
2022/07/18 07:47:32;;;;;;;89.95;17.65;;;;;;;20.86;55.31;99490.63;5011160;28;20108;-84
2022/07/18 07:49:59;;;;;;;93.43;17.52;;;;;;;21.04;55.52;99490.84;5009359;28;20069;-85
2022/07/18 07:52:27;;;;;;;55.53;14.48;;;;;;;21.20;54.69;99496.19;4979904;28;20034;-84
2022/07/18 07:54:57;;;;;;;77.47;16.85;;;;;;;21.39;56.90;99486.91;5008792;28;20044;-93
2022/07/18 07:57:23;;;;;;;57.88;14.55;;;;;;;21.16;54.06;99450.06;5015733;28;20128;-91
2022/07/18 07:59:50;;;;;;;64.15;14.85;;;;;;;21.25;55.40;99453.31;5017740;28;20044;-84
2022/07/18 08:02:18;;;;;;;133.23;18.42;;;;;;;21.58;54.31;99480.31;5016668;28;20073;-83
2022/07/18 08:04:44;;;;;;;37.78;12.57;;;;;;;21.66;51.59;99490.34;5016941;28;20034;-85
2022/07/18 08:07:11;;;;;;;56.17;12.85;;;;;;;21.66;51.95;99486.75;5017111;28;20046;-87
2022/07/18 08:09:37;;;;;;;;;;;;;;;21.80;54.46;99478.53;5015411;28;20045;-86
2022/07/18 08:12:05;;;;;;;30.63;11.05;;;;;;;21.63;53.62;99452.16;5013731;28;19922;-86
2022/07/18 08:14:33;;;;;;;42.00;12.85;;;;;;;21.61;51.75;99464.84;5014372;28;20073;-87
2022/07/18 08:17:00;;;;;;;33.17;11.93;;;;;;;21.32;52.65;99467.31;5017338;28;20089;-87
2022/07/18 08:19:27;;;;;;;109.28;15.15;;;;;;;21.21;53.23;99446.94;5016615;28;20045;-85
2022/07/18 08:21:54;;;;;;;32.00;10.07;;;;;;;21.34;51.25;99448.25;5018974;28;20069;-86
2022/07/18 08:24:20;;;;;;;;;;;;;;;21.69;53.20;99469.28;5017126;28;20534;-87
2022/07/18 08:26:46;;;;;;;55.50;11.55;;;;;;;21.90;51.47;99460.31;5000353;28;19921;-86
2022/07/18 08:29:12;;;;;;;32.40;9.68;;;;;;;21.74;50.91;99427.97;5001068;28;20049;-85
2022/07/18 08:31:38;;;;;;;26.40;9.23;;;;;;;21.69;50.82;99461.75;5017483;28;20441;-87
2022/07/18 08:34:04;;;;;;;36.13;7.28;;;;;;;21.42;49.72;99426.91;4999648;28;20046;-86
2022/07/18 08:36:30;;;;;;;23.45;5.80;;;;;;;21.50;49.47;99434.16;5018246;28;20034;-86
2022/07/18 08:38:58;;;;;;;20.65;5.10;;;;;;;21.39;47.50;99463.81;5020554;28;20042;-90
2022/07/18 08:41:25;;;;;;;40.33;6.00;;;;;;;21.41;49.22;99442.78;4985272;28;20036;-92
2022/07/18 08:43:51;;;;;;;50.75;7.75;;;;;;;21.51;48.70;99444.09;5017675;28;20046;-94
2022/07/18 08:46:21;;;;;;;41.53;7.15;;;;;;;21.66;48.62;99450.59;4996084;28;20038;-86
2022/07/18 08:48:51;;;;;;;29.20;5.53;;;;;;;21.23;47.29;99403.69;4999860;28;20048;-86
2022/07/18 08:51:19;;;;;;;71.10;8.85;;;;;;;21.70;46.56;99451.41;5009379;28;20038;-86
2022/07/18 08:53:47;;;;;;;24.75;6.25;;;;;;;21.42;46.34;99413.78;4999527;28;20096;-84
2022/07/18 08:56:17;;;;;;;35.45;5.60;;;;;;;21.48;46.70;99415.03;5011467;28;20042;-90
2022/07/18 08:58:43;;;;;;;17.05;5.00;;;;;;;21.69;46.09;99450.63;5018375;28;20033;-86
2022/07/18 09:01:11;;;;;;;34.97;6.00;;;;;;;21.66;47.58;99437.47;5017086;28;20064;-86
2022/07/18 09:03:38;;;;;;;28.42;5.50;;;;;;;21.42;46.74;99410.22;5017595;28;20046;-87
2022/07/18 09:06:11;;;;;;;111.75;11.40;;;;;;;21.69;47.12;99420.00;5018234;28;20038;-87
2022/07/18 09:08:39;;;;;;;50.05;7.47;;;;;;;21.88;46.92;99437.63;5016462;28;20041;-86
2022/07/18 09:11:12;;;;;;;21.00;4.82;;;;;;;21.58;46.44;99435.78;5003247;28;20140;-86
2022/07/18 09:13:42;;;;;;;76.70;8.85;;;;;;;21.65;47.41;99433.06;5024497;28;20013;-87
2022/07/18 09:16:13;;;;;;;27.27;4.93;;;;;;;21.48;47.11;99414.25;5028958;28;20038;-90
2022/07/18 09:18:42;;;;;;;37.95;6.13;;;;;;;21.69;47.94;99414.44;5031694;28;20513;-93
2022/07/18 09:21:18;;;;;;;41.33;6.38;;;;;;;21.87;48.92;99420.13;5027294;28;20049;-86
2022/07/18 09:23:49;;;;;;;28.17;4.78;;;;;;;21.99;49.02;99427.38;5018442;28;20054;-86
2022/07/18 09:26:40;;;;;;;35.58;5.63;;;;;;;22.04;49.41;99416.66;5022471;28;20082;-87
2022/07/18 09:29:07;;;;;;;13.00;4.07;;;;;;;22.21;47.33;99414.41;5038465;28;20084;-85
2022/07/18 09:31:34;;;;;;;18.88;4.82;;;;;;;22.29;47.33;99402.13;5037199;28;20034;-87
2022/07/18 09:34:04;;;;;;;54.88;7.50;;;;;;;22.39;48.04;99400.59;5027172;28;20033;-88
2022/07/18 09:36:59;;;;;;;31.35;5.88;;;;;;;22.49;46.54;99414.56;5004410;28;20050;-90
2022/07/18 09:39:26;;;;;;;33.78;5.50;;;;;;;22.43;46.54;99395.84;5018360;28;20041;-90
2022/07/18 09:41:52;;;;;;;21.40;5.30;;;;;;;22.63;46.61;99410.25;5005927;28;20052;-95
2022/07/18 09:44:20;;;;;;;41.17;6.05;;;;;;;22.63;45.31;99394.31;5023984;28;20045;-96
2022/07/18 09:47:03;;;;;;;32.25;6.22;;;;;;;22.68;44.88;99396.75;5022598;28;20045;-86
2022/07/18 09:49:39;;;;;;;49.35;6.20;;;;;;;22.64;45.24;99398.69;5039671;28;20157;-85
2022/07/18 09:52:08;;;;;;;33.80;4.93;;;;;;;22.38;44.84;99373.91;4997778;28;20046;-87
2022/07/18 09:54:43;;;;;;;30.30;5.80;;;;;;;22.42;45.41;99372.75;5019554;28;20095;-88
2022/07/18 09:57:22;;;;;;;25.10;4.88;;;;;;;22.71;44.88;99398.75;5037965;28;20491;-89
2022/07/18 09:59:49;;;;;;;18.77;3.38;;;;;;;22.49;43.54;99383.13;5036652;28;20037;-88
2022/07/18 10:02:16;;;;;;;17.02;3.92;;;;;;;22.29;44.27;99377.06;5021306;28;20126;-89
2022/07/18 10:04:44;;;;;;;15.55;3.63;;;;;;;22.22;45.57;99369.47;5013469;28;20132;-87
2022/07/18 10:07:10;;;;;;;14.38;3.80;;;;;;;22.41;44.55;99387.06;5049754;28;20030;-86
2022/07/18 10:09:39;;;;;;;11.18;4.28;;;;;;;22.21;43.17;99344.78;5033588;28;20098;-87
2022/07/18 10:12:06;;;;;;;11.00;3.70;;;;;;;22.36;43.63;99356.81;5021553;28;20045;-88
2022/07/18 10:14:34;;;;;;;9.38;3.60;;;;;;;22.36;43.50;99354.03;5000733;28;20144;-87
2022/07/18 10:17:01;;;;;;;9.80;3.42;;;;;;;22.35;42.55;99341.28;5017339;28;20098;-88
2022/07/18 10:19:27;;;;;;;;;;;;;;;22.64;43.70;99373.63;5045485;28;20048;-91
2022/07/18 10:21:55;;;;;;;12.73;3.60;;;;;;;22.49;42.83;99333.78;5044362;28;19920;-96
2022/07/18 10:24:24;;;;;;;10.95;3.70;;;;;;;22.67;43.75;99360.91;5027173;28;20045;-87
2022/07/18 10:27:17;;;;;;;8.48;3.60;;;;;;;22.58;43.93;99357.69;5007217;28;20071;-87
2022/07/18 10:30:09;;;;;;;10.93;3.90;;;;;;;22.39;42.63;99367.97;5039171;28;20060;-92
2022/07/18 10:32:48;;;;;;;17.67;3.75;;;;;;;22.27;44.36;99346.81;5040489;28;20406;-87
2022/07/18 10:35:17;;;;;;;13.30;3.97;;;;;;;22.19;44.11;99352.75;5028792;28;20043;-87
2022/07/18 10:37:44;;;;;;;10.82;4.00;;;;;;;21.97;44.95;99349.81;5048353;28;20044;-85
2022/07/18 10:41:00;;;;;;;12.20;4.18;;;;;;;21.92;45.57;99357.72;5036092;28;20078;-87
2022/07/18 10:44:00;;;;;;;10.88;3.75;;;;;;;21.98;45.71;99347.81;4953417;29;20079;-88
2022/07/18 10:47:17;;;;;;;8.20;4.10;;;;;;;22.35;46.56;99349.63;4923940;29;20155;-88
2022/07/18 10:49:49;;;;;;;22.33;3.83;;;;;;;22.51;45.32;99350.09;4924853;29;20047;-92
2022/07/18 10:52:35;;;;;;;12.15;2.80;;;;;;;22.34;42.84;99348.84;4915709;29;20058;-87
2022/07/18 10:55:23;;;;;;;18.33;3.83;;;;;;;22.47;44.69;99350.09;4921300;29;20048;-87
2022/07/18 10:57:49;;;;;;;11.32;4.00;;;;;;;22.66;43.49;99342.59;4938603;29;20040;-89
2022/07/18 11:00:28;;;;;;;12.52;3.50;;;;;;;22.64;43.97;99329.03;4922547;29;20039;-88
2022/07/18 11:03:00;;;;;;;6.95;3.90;;;;;;;22.63;42.11;99344.16;4902083;29;20497;-90
2022/07/18 11:05:26;;;;;;;8.52;3.15;;;;;;;22.49;43.90;99335.78;4908199;29;20075;-88
2022/07/18 11:08:01;;;;;;;14.63;4.53;;;;;;;22.40;45.56;99335.34;4936079;29;20044;-89
2022/07/18 11:10:54;;;;;;;12.27;3.47;;;;;;;22.47;43.16;99324.22;4919184;29;20047;-89
2022/07/18 11:13:37;;;;;;;6.65;3.22;;;;;;;22.34;41.26;99332.13;4919647;29;20040;-88
2022/07/18 11:16:16;;;;;;;6.72;3.03;;;;;;;22.42;42.21;99317.06;4921694;29;20044;-89
2022/07/18 11:18:45;;;;;;;6.38;3.83;;;;;;;22.68;41.32;99317.91;4938908;28;20139;-90
2022/07/18 11:21:33;;;;;;;22.73;4.35;;;;;;;22.60;41.38;99299.59;5029407;28;20068;-89
2022/07/18 11:24:22;;;;;;;13.32;3.85;;;;;;;22.39;41.25;99289.19;5048692;28;20049;-88
2022/07/18 11:26:55;;;;;;;15.35;4.30;;;;;;;22.74;41.71;99308.75;5004898;28;20585;-89
2022/07/18 11:29:26;;;;;;;24.25;5.00;;;;;;;22.79;42.76;99295.66;5024948;28;20041;-87
2022/07/18 11:31:58;;;;;;;9.35;3.67;;;;;;;22.89;42.85;99278.94;5037063;28;20072;-89
2022/07/18 11:34:27;;;;;;;13.93;3.40;;;;;;;23.26;43.32;99285.34;4975145;28;20142;-88